Time;durP1;ratioP1;P1;durP2;ratioP2;P2;SDS_P1;SDS_P2;PMS_P1;PMS_P2;Temp;Humidity;BMP_temperature;BMP_pressure;BME280_temperature;BME280_humidity;BME280_pressure;Samples;Min_cycle;Max_cycle;Signal;HPM_P1;HPM_P2
2023/03/18 00:01:02;;;;;;;7.60;3.15;;;13.40;99.90;;;;;;4173533;28;20111;-70
2023/03/18 00:03:03;;;;;;;6.88;2.70;;;13.40;99.90;;;;;;4172176;28;20029;-71
2023/03/18 00:05:06;;;;;;;5.93;2.58;;;13.40;99.90;;;;;;4181224;28;20049;-72
2023/03/18 00:07:07;;;;;;;5.22;2.22;;;13.40;99.90;;;;;;4187044;28;20029;-70
2023/03/18 00:09:07;;;;;;;6.25;2.50;;;13.30;99.90;;;;;;4187077;28;20028;-70
2023/03/18 00:11:11;;;;;;;5.80;2.67;;;13.30;99.90;;;;;;4195925;28;20037;-71
2023/03/18 00:13:12;;;;;;;5.53;2.50;;;13.30;99.90;;;;;;4191459;28;20457;-70
2023/03/18 00:15:15;;;;;;;7.53;3.08;;;13.30;99.90;;;;;;4192841;28;20038;-70
2023/03/18 00:17:15;;;;;;;5.18;2.40;;;13.20;99.90;;;;;;4192814;28;20029;-70
2023/03/18 00:19:17;;;;;;;4.20;2.65;;;13.20;99.90;;;;;;4210821;28;20074;-70
2023/03/18 00:21:18;;;;;;;4.55;2.45;;;13.20;99.90;;;;;;4195648;28;20036;-70
2023/03/18 00:23:20;;;;;;;5.50;2.20;;;13.20;99.90;;;;;;4196392;28;20471;-71
2023/03/18 00:25:20;;;;;;;3.40;1.98;;;13.20;99.90;;;;;;4190615;28;20079;-71
2023/03/18 00:27:21;;;;;;;3.85;2.20;;;13.20;99.90;;;;;;4195170;28;20048;-72
2023/03/18 00:29:23;;;;;;;5.57;2.47;;;13.20;99.90;;;;;;4192704;28;20139;-70
2023/03/18 00:31:26;;;;;;;6.40;2.50;;;13.20;99.90;;;;;;4191536;28;20036;-68
2023/03/18 00:33:26;;;;;;;;;;;13.20;99.90;;;;;;4187636;28;20036;-70
2023/03/18 00:35:29;;;;;;;6.07;2.50;;;13.10;99.90;;;;;;4191603;28;19959;-70
2023/03/18 00:37:32;;;;;;;5.63;2.35;;;13.10;99.90;;;;;;4189320;28;20028;-70
2023/03/18 00:39:33;;;;;;;6.60;2.20;;;13.10;99.90;;;;;;4202965;28;20518;-70
2023/03/18 00:41:35;;;;;;;7.80;2.50;;;13.10;99.90;;;;;;4181526;28;20029;-70
2023/03/18 00:43:44;;;;;;;9.43;2.67;;;13.10;99.90;;;;;;4195272;28;20040;-70
2023/03/18 00:45:45;;;;;;;5.72;2.58;;;13.00;99.90;;;;;;4193363;28;20040;-70
2023/03/18 00:47:47;;;;;;;5.15;2.22;;;13.00;99.90;;;;;;4196038;28;20075;-70
2023/03/18 00:49:47;;;;;;;6.35;2.05;;;13.00;99.90;;;;;;4199246;28;20077;-70
2023/03/18 00:51:48;;;;;;;5.05;2.75;;;13.00;99.90;;;;;;4189212;28;20426;-70
2023/03/18 00:53:54;;;;;;;5.70;2.72;;;13.00;99.90;;;;;;4195974;28;20060;-70
2023/03/18 00:55:55;;;;;;;5.90;2.53;;;13.00;99.90;;;;;;4194810;28;20037;-69
2023/03/18 00:57:56;;;;;;;6.00;2.15;;;13.00;99.90;;;;;;4192660;28;20054;-69
2023/03/18 00:59:58;;;;;;;4.65;2.38;;;12.90;99.90;;;;;;4180873;28;20399;-69
2023/03/18 01:01:58;;;;;;;5.35;2.45;;;12.90;99.90;;;;;;4182770;28;20044;-69
2023/03/18 01:04:00;;;;;;;7.07;2.80;;;12.90;99.90;;;;;;4196172;28;20028;-70
2023/03/18 01:06:03;;;;;;;6.50;2.70;;;12.90;99.90;;;;;;4181915;28;20054;-69
2023/03/18 01:08:03;;;;;;;3.85;2.28;;;12.90;99.90;;;;;;4180892;28;20044;-70
2023/03/18 01:10:06;;;;;;;4.75;2.65;;;12.90;99.90;;;;;;4185041;28;20021;-71
2023/03/18 01:12:08;;;;;;;5.72;2.45;;;12.90;99.90;;;;;;4182781;28;20032;-70
2023/03/18 01:14:09;;;;;;;5.15;2.38;;;12.90;99.90;;;;;;4184708;28;20103;-70
2023/03/18 01:16:10;;;;;;;5.38;2.63;;;12.90;99.90;;;;;;4181147;28;20032;-70
2023/03/18 01:18:11;;;;;;;6.47;2.70;;;12.90;99.90;;;;;;4179116;28;20480;-68
2023/03/18 01:20:15;;;;;;;5.80;2.28;;;12.90;99.90;;;;;;4177995;28;20033;-69
2023/03/18 01:22:17;;;;;;;7.13;2.67;;;12.90;99.90;;;;;;4178381;28;20052;-69
2023/03/18 01:24:18;;;;;;;4.45;2.70;;;12.90;99.90;;;;;;4177577;28;20025;-70
2023/03/18 01:26:19;;;;;;;5.15;2.67;;;12.90;99.90;;;;;;4177319;28;20055;-70
2023/03/18 01:28:21;;;;;;;7.38;2.80;;;12.90;99.90;;;;;;4180801;28;20441;-70
2023/03/18 01:30:22;;;;;;;8.30;3.17;;;12.90;99.90;;;;;;4182781;28;20041;-71
2023/03/18 01:32:23;;;;;;;4.95;2.80;;;12.80;99.90;;;;;;4182568;28;20084;-70
2023/03/18 01:34:23;;;;;;;6.97;3.15;;;12.80;99.90;;;;;;4185440;28;20028;-71
2023/03/18 01:36:24;;;;;;;6.82;2.80;;;12.80;99.90;;;;;;4179707;28;20024;-72
2023/03/18 01:38:29;;;;;;;6.45;3.15;;;12.80;99.90;;;;;;4180872;28;20074;-72
2023/03/18 01:40:31;;;;;;;6.57;3.05;;;12.80;99.90;;;;;;4175358;28;20041;-74
2023/03/18 01:42:32;;;;;;;5.28;2.65;;;12.70;99.90;;;;;;4185412;28;20376;-75
2023/03/18 01:44:33;;;;;;;10.48;2.88;;;12.80;99.90;;;;;;4183942;28;20078;-74
2023/03/18 01:46:35;;;;;;;6.47;2.90;;;12.70;99.90;;;;;;4185407;28;20037;-75
2023/03/18 01:48:38;;;;;;;5.45;2.78;;;12.70;99.90;;;;;;4184151;28;20035;-75
2023/03/18 01:50:39;;;;;;;7.85;2.92;;;12.70;99.90;;;;;;4181670;28;20033;-75
2023/03/18 01:52:42;;;;;;;10.10;3.40;;;12.70;99.90;;;;;;4171380;28;20021;-75
2023/03/18 01:54:52;;;;;;;6.65;2.72;;;12.70;99.90;;;;;;4179109;28;20408;-75
2023/03/18 01:56:53;;;;;;;5.90;2.85;;;12.70;99.90;;;;;;4175069;28;20116;-75
2023/03/18 01:58:56;;;;;;;7.72;2.80;;;12.70;99.90;;;;;;4175770;28;20044;-75
2023/03/18 02:01:02;;;;;;;5.40;3.00;;;12.70;99.90;;;;;;4183749;28;20391;-74
2023/03/18 02:03:05;;;;;;;4.95;2.72;;;12.70;99.90;;;;;;4167751;28;20060;-75
2023/03/18 02:05:10;;;;;;;6.38;3.17;;;12.70;99.90;;;;;;4169836;28;20033;-75
2023/03/18 02:07:15;;;;;;;8.93;3.65;;;12.70;99.90;;;;;;4187869;28;20035;-75
2023/03/18 02:09:16;;;;;;;8.32;3.50;;;12.60;99.90;;;;;;4184344;28;20025;-74
2023/03/18 02:11:17;;;;;;;6.03;2.72;;;12.60;99.90;;;;;;4194099;28;20025;-74
2023/03/18 02:13:17;;;;;;;6.18;2.90;;;12.70;99.90;;;;;;4195028;28;20050;-75
2023/03/18 02:15:21;;;;;;;4.57;2.80;;;12.70;99.90;;;;;;4191989;28;20082;-75
2023/03/18 02:17:24;;;;;;;6.90;3.03;;;12.60;99.90;;;;;;4193947;28;20545;-75
2023/03/18 02:19:39;;;;;;;5.97;3.45;;;12.60;99.90;;;;;;4191529;28;20035;-71
2023/03/18 02:21:45;;;;;;;8.10;3.33;;;12.60;99.90;;;;;;4193827;28;20058;-74
2023/03/18 02:24:01;;;;;;;8.52;3.10;;;12.60;99.90;;;;;;4194819;28;20434;-74
2023/03/18 02:26:27;;;;;;;7.90;3.40;;;12.70;99.90;;;;;;4190991;28;20083;-74
2023/03/18 02:28:30;;;;;;;9.40;3.72;;;12.60;99.90;;;;;;4165460;28;20032;-74
2023/03/18 02:30:41;;;;;;;9.10;3.42;;;12.60;99.90;;;;;;4180689;28;20052;-74
2023/03/18 02:32:44;;;;;;;6.85;3.53;;;12.60;99.90;;;;;;4186158;28;20032;-74
2023/03/18 02:34:44;;;;;;;9.77;3.13;;;12.60;99.90;;;;;;4189361;28;20086;-74
2023/03/18 02:36:46;;;;;;;6.18;2.97;;;12.60;99.90;;;;;;4193628;28;20434;-74
2023/03/18 02:38:47;;;;;;;10.85;3.75;;;12.60;99.90;;;;;;4191285;28;20036;-74
2023/03/18 02:40:48;;;;;;;6.25;3.25;;;12.60;99.90;;;;;;4194199;28;20025;-74
2023/03/18 02:42:49;;;;;;;5.85;3.20;;;12.50;99.90;;;;;;4190511;28;20032;-74
2023/03/18 02:44:49;;;;;;;6.90;2.95;;;12.50;99.90;;;;;;4189921;28;20029;-75
2023/03/18 02:46:56;;;;;;;6.82;2.72;;;12.60;99.90;;;;;;4191320;28;20040;-74
2023/03/18 02:48:59;;;;;;;8.52;3.45;;;12.60;99.90;;;;;;4189753;28;20063;-74
2023/03/18 02:51:00;;;;;;;8.52;3.47;;;12.60;99.90;;;;;;4194026;28;20032;-75
2023/03/18 02:53:03;;;;;;;6.90;3.08;;;12.60;99.90;;;;;;4187265;28;20040;-74
2023/03/18 02:55:04;;;;;;;5.35;2.90;;;12.60;99.90;;;;;;4194406;28;20070;-74
2023/03/18 02:57:05;;;;;;;6.43;2.92;;;12.60;99.90;;;;;;4189562;28;20137;-75
2023/03/18 02:59:06;;;;;;;7.90;3.10;;;12.60;99.90;;;;;;4191622;28;20433;-75
2023/03/18 03:01:08;;;;;;;8.40;3.20;;;12.60;99.90;;;;;;4192582;28;20510;-75
2023/03/18 03:03:09;;;;;;;6.45;2.78;;;12.60;99.90;;;;;;4190646;28;20453;-74
2023/03/18 03:05:11;;;;;;;7.35;3.05;;;12.60;99.90;;;;;;4193828;28;20112;-75
2023/03/18 03:07:12;;;;;;;6.25;2.63;;;12.60;99.90;;;;;;4192696;28;20119;-74
2023/03/18 03:09:15;;;;;;;6.07;3.03;;;12.60;99.90;;;;;;4187531;28;20112;-74
2023/03/18 03:11:16;;;;;;;;;;;12.60;99.90;;;;;;4177244;28;20033;-74
2023/03/18 03:13:17;;;;;;;6.70;3.25;;;12.60;99.90;;;;;;4192650;28;19924;-74
2023/03/18 03:15:18;;;;;;;7.20;3.45;;;12.60;99.90;;;;;;4183758;28;20037;-74
2023/03/18 03:17:18;;;;;;;4.45;2.95;;;12.60;99.90;;;;;;4192171;28;20033;-74
2023/03/18 03:19:19;;;;;;;9.02;3.28;;;12.60;99.90;;;;;;4194164;28;20052;-74
2023/03/18 03:21:19;;;;;;;7.20;3.15;;;12.60;99.90;;;;;;4191317;28;20028;-74
2023/03/18 03:23:20;;;;;;;7.20;3.15;;;12.60;99.90;;;;;;4185621;28;20030;-74
2023/03/18 03:25:21;;;;;;;5.57;2.55;;;12.60;99.90;;;;;;4193454;28;20032;-75
2023/03/18 03:27:22;;;;;;;5.28;2.95;;;12.50;99.90;;;;;;4189797;28;20111;-74
2023/03/18 03:29:22;;;;;;;6.32;2.80;;;12.60;99.90;;;;;;4191666;28;20024;-75
2023/03/18 03:31:23;;;;;;;6.15;2.63;;;12.60;99.90;;;;;;4189745;28;20028;-74
2023/03/18 03:33:25;;;;;;;4.22;2.72;;;12.60;99.90;;;;;;4191891;28;20033;-74
2023/03/18 03:35:26;;;;;;;7.03;3.08;;;12.60;99.90;;;;;;4187862;28;20442;-75
2023/03/18 03:37:27;;;;;;;7.68;3.10;;;12.60;99.90;;;;;;4190935;28;20044;-73
2023/03/18 03:39:27;;;;;;;6.78;2.90;;;12.60;99.90;;;;;;4195049;28;20037;-74
2023/03/18 03:41:28;;;;;;;5.88;2.80;;;12.60;99.90;;;;;;4197140;28;20379;-75
2023/03/18 03:43:28;;;;;;;6.38;3.03;;;12.60;99.90;;;;;;4188425;28;20394;-75
2023/03/18 03:45:29;;;;;;;5.47;2.85;;;12.50;99.90;;;;;;4194298;28;20086;-75
2023/03/18 03:47:30;;;;;;;5.10;3.03;;;12.60;99.90;;;;;;4181484;28;20033;-74
2023/03/18 03:49:30;;;;;;;6.07;2.80;;;12.50;99.90;;;;;;4197260;28;20021;-75
2023/03/18 03:51:31;;;;;;;7.13;3.10;;;12.60;99.90;;;;;;4196538;28;20479;-75
2023/03/18 03:53:32;;;;;;;6.32;2.83;;;12.60;99.90;;;;;;4192526;28;20103;-75
2023/03/18 03:55:34;;;;;;;4.40;2.55;;;12.60;99.90;;;;;;4196798;28;20040;-75
2023/03/18 03:57:35;;;;;;;8.63;3.00;;;12.60;99.90;;;;;;4191875;28;20029;-75
2023/03/18 03:59:36;;;;;;;6.22;3.03;;;12.60;99.90;;;;;;4197475;28;20032;-75
2023/03/18 04:01:38;;;;;;;5.28;3.15;;;12.60;99.90;;;;;;4189548;28;20028;-75
2023/03/18 04:03:38;;;;;;;5.35;2.42;;;12.60;99.90;;;;;;4194372;28;20021;-75
2023/03/18 04:05:40;;;;;;;5.45;2.63;;;12.60;99.90;;;;;;4192930;28;20064;-75
2023/03/18 04:07:41;;;;;;;6.50;3.13;;;12.60;99.90;;;;;;4194237;28;20028;-74
2023/03/18 04:09:41;;;;;;;5.05;2.78;;;12.60;99.90;;;;;;4195547;28;20035;-73
2023/03/18 04:11:43;;;;;;;6.05;2.88;;;12.60;99.90;;;;;;4195866;28;20104;-74
2023/03/18 04:13:44;;;;;;;6.82;3.42;;;12.50;99.90;;;;;;4194817;28;20032;-75
2023/03/18 04:15:46;;;;;;;7.35;3.00;;;12.50;99.90;;;;;;4195914;28;20552;-75
2023/03/18 04:17:48;;;;;;;6.70;3.40;;;12.50;99.90;;;;;;4190172;28;20508;-75
2023/03/18 04:19:49;;;;;;;6.78;3.08;;;12.40;99.90;;;;;;4182238;28;20072;-75
2023/03/18 04:21:50;;;;;;;4.63;2.63;;;12.40;99.90;;;;;;4178073;28;20032;-75
2023/03/18 04:23:50;;;;;;;6.50;2.90;;;12.40;99.90;;;;;;4189785;28;20434;-75
2023/03/18 04:25:51;;;;;;;6.20;3.00;;;12.40;99.90;;;;;;4195056;28;20078;-75
2023/03/18 04:27:52;;;;;;;6.13;3.28;;;12.40;99.90;;;;;;4195649;28;20039;-75
2023/03/18 04:29:53;;;;;;;5.20;2.80;;;12.40;99.90;;;;;;4196651;28;20025;-75
2023/03/18 04:31:53;;;;;;;11.40;3.97;;;12.30;99.90;;;;;;4193538;28;20115;-75
2023/03/18 04:33:54;;;;;;;11.18;4.10;;;12.30;99.90;;;;;;4196622;28;20059;-75
2023/03/18 04:35:55;;;;;;;10.23;3.88;;;12.30;99.90;;;;;;4194963;28;20094;-75
2023/03/18 04:37:55;;;;;;;10.05;4.00;;;12.30;99.90;;;;;;4195786;28;20028;-75
2023/03/18 04:39:57;;;;;;;6.22;3.80;;;12.30;99.90;;;;;;4196386;28;20167;-74
2023/03/18 04:41:57;;;;;;;6.25;3.70;;;12.30;99.90;;;;;;4194590;28;20076;-73
2023/03/18 04:43:58;;;;;;;5.93;3.65;;;12.30;99.90;;;;;;4194784;28;20040;-74
2023/03/18 04:45:59;;;;;;;8.27;3.53;;;12.30;99.90;;;;;;4193001;28;20036;-75
2023/03/18 04:47:59;;;;;;;6.35;3.15;;;12.30;99.90;;;;;;4194001;28;20040;-74
2023/03/18 04:50:01;;;;;;;8.07;3.55;;;12.30;99.90;;;;;;4188382;28;20029;-75
2023/03/18 04:52:02;;;;;;;6.97;3.40;;;12.30;99.90;;;;;;4194832;28;20488;-74
2023/03/18 04:54:03;;;;;;;6.03;3.15;;;12.30;99.90;;;;;;4193125;28;20037;-74
2023/03/18 04:56:06;;;;;;;7.38;3.22;;;12.30;99.90;;;;;;4194034;28;20678;-74
2023/03/18 04:58:06;;;;;;;7.10;3.22;;;12.30;99.90;;;;;;4195078;28;20029;-74
2023/03/18 05:00:10;;;;;;;4.60;3.03;;;12.30;99.90;;;;;;4192233;28;20033;-75
2023/03/18 05:02:11;;;;;;;8.02;3.05;;;12.30;99.90;;;;;;4192546;28;20024;-74
2023/03/18 05:04:11;;;;;;;9.23;3.58;;;12.30;99.90;;;;;;4194427;28;20501;-70
2023/03/18 05:06:26;;;;;;;7.18;3.20;;;12.30;99.90;;;;;;4191532;28;20048;-74
2023/03/18 05:08:26;;;;;;;5.40;2.72;;;12.30;99.90;;;;;;4181680;28;20480;-74
2023/03/18 05:10:27;;;;;;;7.68;3.63;;;12.30;99.90;;;;;;4190152;28;20060;-74
2023/03/18 05:12:28;;;;;;;7.97;3.72;;;12.30;99.90;;;;;;4195456;28;20115;-74
2023/03/18 05:14:29;;;;;;;8.27;3.15;;;12.30;99.90;;;;;;4195861;28;20090;-74
2023/03/18 05:16:29;;;;;;;8.73;4.15;;;12.30;99.90;;;;;;4190640;28;20075;-75
2023/03/18 05:18:30;;;;;;;7.05;3.53;;;12.30;99.90;;;;;;4184481;28;20079;-74
2023/03/18 05:20:30;;;;;;;9.55;4.03;;;12.20;99.90;;;;;;4195083;28;20048;-74
2023/03/18 05:22:31;;;;;;;7.70;3.25;;;12.30;99.90;;;;;;4192432;28;20369;-74
2023/03/18 05:24:31;;;;;;;6.40;3.42;;;12.30;99.90;;;;;;4194570;28;20117;-75
2023/03/18 05:26:32;;;;;;;8.60;4.22;;;12.20;99.90;;;;;;4189892;28;20039;-74
2023/03/18 05:28:33;;;;;;;7.53;4.13;;;12.30;99.90;;;;;;4195227;28;20032;-74
2023/03/18 05:30:35;;;;;;;7.85;4.25;;;12.30;99.90;;;;;;4190376;28;20025;-75
2023/03/18 05:32:36;;;;;;;;;;;12.30;99.90;;;;;;4184917;28;20032;-75
2023/03/18 05:34:38;;;;;;;9.20;4.30;;;12.20;99.90;;;;;;4189606;28;19915;-74
2023/03/18 05:36:39;;;;;;;8.98;4.68;;;12.20;99.90;;;;;;4177771;28;20476;-75
2023/03/18 05:38:39;;;;;;;7.75;4.07;;;12.20;99.90;;;;;;4192283;28;20033;-74
2023/03/18 05:40:40;;;;;;;12.77;4.32;;;12.20;99.90;;;;;;4193393;28;20111;-75
2023/03/18 05:42:41;;;;;;;8.60;4.60;;;12.20;99.90;;;;;;4191193;28;20032;-75
2023/03/18 05:44:41;;;;;;;6.63;3.90;;;12.20;99.90;;;;;;4189430;28;20488;-75
2023/03/18 05:46:42;;;;;;;8.05;4.07;;;12.20;99.90;;;;;;4192521;28;20034;-75
2023/03/18 05:48:42;;;;;;;6.28;3.28;;;12.20;99.90;;;;;;4192325;28;20029;-75
2023/03/18 05:50:43;;;;;;;9.10;4.10;;;12.20;99.90;;;;;;4191739;28;20029;-75
2023/03/18 05:52:44;;;;;;;9.88;4.07;;;12.20;99.90;;;;;;4189670;28;20036;-74
2023/03/18 05:54:45;;;;;;;7.10;4.00;;;12.30;99.90;;;;;;4194482;28;20423;-74
2023/03/18 05:56:45;;;;;;;8.85;4.32;;;12.20;99.90;;;;;;4186939;28;20437;-74
2023/03/18 05:58:46;;;;;;;7.97;3.88;;;12.20;99.90;;;;;;4192892;28;20372;-74
2023/03/18 06:00:47;;;;;;;7.10;4.03;;;12.20;99.90;;;;;;4194364;28;20025;-74
2023/03/18 06:02:48;;;;;;;6.78;3.40;;;12.20;99.90;;;;;;4193018;28;20112;-75
2023/03/18 06:04:49;;;;;;;9.15;4.32;;;12.30;99.90;;;;;;4195055;28;20040;-75
2023/03/18 06:06:50;;;;;;;12.80;5.50;;;12.20;99.90;;;;;;4192250;28;20040;-75
2023/03/18 06:08:51;;;;;;;10.65;4.30;;;12.20;99.90;;;;;;4194376;28;20021;-75
2023/03/18 06:10:52;;;;;;;6.68;4.47;;;12.20;99.90;;;;;;4191252;28;20431;-75
2023/03/18 06:12:54;;;;;;;9.27;4.53;;;12.20;99.90;;;;;;4195115;28;20104;-75
2023/03/18 06:14:55;;;;;;;12.45;4.63;;;12.20;99.90;;;;;;4185983;28;20036;-75
2023/03/18 06:16:56;;;;;;;9.82;4.25;;;12.20;99.90;;;;;;4190445;28;20025;-75
2023/03/18 06:18:57;;;;;;;9.52;4.22;;;12.20;99.90;;;;;;4189477;28;20025;-74
2023/03/18 06:20:57;;;;;;;8.80;4.68;;;12.20;99.90;;;;;;4192682;28;20039;-75
2023/03/18 06:22:58;;;;;;;9.07;4.28;;;12.20;99.90;;;;;;4189740;28;20032;-75
2023/03/18 06:24:59;;;;;;;6.22;4.05;;;12.20;99.90;;;;;;4194104;28;20039;-73
2023/03/18 06:27:00;;;;;;;6.15;3.83;;;12.20;99.90;;;;;;4191172;28;20029;-74
2023/03/18 06:29:01;;;;;;;5.30;3.67;;;12.20;99.90;;;;;;4190302;28;20391;-74
2023/03/18 06:31:02;;;;;;;6.68;4.47;;;12.20;99.90;;;;;;4189754;28;20039;-75
2023/03/18 06:33:03;;;;;;;7.85;4.32;;;12.20;99.90;;;;;;4194750;28;20080;-75
2023/03/18 06:35:04;;;;;;;10.52;4.50;;;12.20;99.90;;;;;;4193890;28;20016;-75
2023/03/18 06:37:05;;;;;;;9.23;4.60;;;12.30;99.90;;;;;;4190615;28;20029;-75
2023/03/18 06:39:06;;;;;;;7.38;4.72;;;12.30;99.90;;;;;;4191332;28;20036;-75
2023/03/18 06:41:07;;;;;;;4.97;3.80;;;12.30;99.90;;;;;;4190817;28;20037;-75
2023/03/18 06:43:09;;;;;;;9.55;4.18;;;12.40;99.90;;;;;;4191373;28;20170;-75
2023/03/18 06:45:10;;;;;;;8.10;4.70;;;12.40;99.90;;;;;;4183769;28;20020;-75
2023/03/18 06:47:11;;;;;;;6.97;4.53;;;12.40;99.90;;;;;;4191946;28;20169;-75
2023/03/18 06:49:13;;;;;;;11.68;5.20;;;12.50;99.90;;;;;;4193219;28;20041;-75
2023/03/18 06:51:14;;;;;;;11.00;5.50;;;12.50;99.90;;;;;;4189653;28;20029;-76
2023/03/18 06:53:15;;;;;;;7.97;4.80;;;12.60;99.90;;;;;;4193581;28;20075;-77
2023/03/18 06:55:15;;;;;;;16.70;6.22;;;12.70;99.90;;;;;;4190418;28;20120;-76
2023/03/18 06:57:16;;;;;;;10.07;5.68;;;12.90;99.90;;;;;;4192327;28;20044;-76
2023/03/18 06:59:18;;;;;;;8.63;4.68;;;13.10;99.90;;;;;;4190008;28;20557;-76
2023/03/18 07:01:19;;;;;;;13.93;5.40;;;13.30;99.90;;;;;;4190649;28;20032;-76
2023/03/18 07:03:20;;;;;;;7.70;4.88;;;13.50;99.90;;;;;;4193903;28;20128;-76
2023/03/18 07:05:21;;;;;;;8.50;5.50;;;13.60;99.90;;;;;;4192496;28;20487;-76
2023/03/18 07:07:23;;;;;;;9.98;5.90;;;13.80;99.90;;;;;;4192038;28;20032;-77
2023/03/18 07:09:24;;;;;;;7.93;4.75;;;13.90;99.90;;;;;;4193802;28;20027;-76
2023/03/18 07:11:26;;;;;;;8.93;4.78;;;14.10;99.90;;;;;;4187550;28;20479;-77
2023/03/18 07:13:27;;;;;;;11.57;4.53;;;14.20;99.90;;;;;;4191645;28;20560;-76
2023/03/18 07:15:28;;;;;;;7.15;4.35;;;14.40;99.90;;;;;;4192623;28;20032;-78
2023/03/18 07:17:28;;;;;;;9.25;4.55;;;14.50;99.90;;;;;;4192488;28;20050;-76
2023/03/18 07:19:31;;;;;;;8.98;3.97;;;14.70;99.90;;;;;;4192575;28;20032;-76
2023/03/18 07:21:31;;;;;;;8.50;4.93;;;14.80;99.90;;;;;;4193069;28;20033;-76
2023/03/18 07:23:33;;;;;;;8.50;4.53;;;15.10;99.90;;;;;;4193976;28;20107;-76
2023/03/18 07:25:35;;;;;;;7.28;4.30;;;15.10;99.90;;;;;;4193343;28;20039;-76
2023/03/18 07:27:36;;;;;;;4.43;3.53;;;15.30;99.90;;;;;;4188965;28;20043;-75
2023/03/18 07:29:36;;;;;;;6.60;3.92;;;15.50;99.90;;;;;;4193340;28;20072;-76
2023/03/18 07:31:37;;;;;;;7.20;4.45;;;15.60;99.90;;;;;;4191076;28;20028;-75
2023/03/18 07:33:38;;;;;;;7.85;4.10;;;15.80;99.90;;;;;;4191745;28;20115;-75
2023/03/18 07:35:41;;;;;;;7.95;4.15;;;15.90;99.90;;;;;;4192747;28;20032;-76
2023/03/18 07:37:42;;;;;;;6.80;3.55;;;16.00;99.90;;;;;;4192437;28;20024;-76
2023/03/18 07:39:43;;;;;;;9.00;4.53;;;16.10;99.90;;;;;;4192181;28;20086;-76
2023/03/18 07:41:44;;;;;;;7.50;3.92;;;16.30;99.90;;;;;;4191551;28;20036;-76
2023/03/18 07:43:44;;;;;;;6.10;3.80;;;16.30;99.90;;;;;;4193030;28;20426;-75
2023/03/18 07:45:45;;;;;;;4.75;3.22;;;16.50;99.90;;;;;;4192801;28;20040;-75
2023/03/18 07:47:45;;;;;;;4.72;3.05;;;16.70;99.90;;;;;;4189098;28;20123;-76
2023/03/18 07:49:46;;;;;;;8.20;3.50;;;16.80;99.90;;;;;;4191842;28;20125;-77
2023/03/18 07:51:47;;;;;;;6.25;3.45;;;17.10;99.90;;;;;;4192478;28;20044;-76
2023/03/18 07:53:49;;;;;;;5.50;3.35;;;17.20;99.90;;;;;;4193648;28;20044;-76
2023/03/18 07:55:50;;;;;;;6.40;4.00;;;17.30;99.90;;;;;;4190210;28;20119;-74
2023/03/18 07:57:50;;;;;;;5.90;3.35;;;17.50;99.90;;;;;;4189699;28;20487;-73
2023/03/18 07:59:51;;;;;;;5.88;3.30;;;17.50;99.90;;;;;;4192624;28;20387;-73
2023/03/18 08:01:52;;;;;;;5.13;2.88;;;17.70;99.90;;;;;;4189936;28;20031;-74
2023/03/18 08:03:52;;;;;;;6.28;2.70;;;17.90;99.90;;;;;;4189182;28;20116;-75
2023/03/18 08:05:54;;;;;;;5.82;2.88;;;17.90;99.90;;;;;;4190221;28;20052;-76
2023/03/18 08:07:55;;;;;;;5.28;2.42;;;18.20;99.90;;;;;;4189553;28;20476;-77
2023/03/18 08:09:56;;;;;;;4.40;3.00;;;18.40;99.90;;;;;;4187891;28;20083;-76
2023/03/18 08:11:56;;;;;;;4.70;2.97;;;18.30;99.90;;;;;;4193117;28;20082;-76
2023/03/18 08:13:58;;;;;;;6.65;3.15;;;18.40;99.90;;;;;;4193392;28;20053;-76
2023/03/18 08:15:58;;;;;;;5.70;2.70;;;18.30;99.90;;;;;;4183646;28;20416;-75
2023/03/18 08:17:59;;;;;;;4.78;2.72;;;18.30;99.90;;;;;;4190623;28;20116;-76
2023/03/18 08:20:00;;;;;;;5.82;2.70;;;18.30;99.90;;;;;;4185021;28;20388;-75
2023/03/18 08:22:01;;;;;;;4.57;3.00;;;18.30;99.90;;;;;;4192970;28;20033;-71
2023/03/18 08:24:02;;;;;;;4.53;2.58;;;18.30;99.90;;;;;;4195835;28;20032;-74
2023/03/18 08:26:03;;;;;;;4.68;2.72;;;18.30;99.90;;;;;;4194258;28;20098;-75
2023/03/18 08:28:06;;;;;;;4.85;2.80;;;18.20;99.90;;;;;;4196094;28;20071;-75
2023/03/18 08:30:07;;;;;;;;;;;18.20;99.90;;;;;;4194087;28;20033;-75
2023/03/18 08:32:08;;;;;;;4.10;2.35;;;18.10;99.90;;;;;;4195269;28;19919;-74
2023/03/18 08:34:09;;;;;;;5.03;2.33;;;18.00;99.90;;;;;;4191329;28;20041;-75
2023/03/18 08:36:10;;;;;;;5.75;2.45;;;18.00;99.90;;;;;;4195518;28;20112;-74
2023/03/18 08:38:11;;;;;;;8.98;2.80;;;17.80;99.90;;;;;;4196243;28;20032;-74
2023/03/18 08:40:12;;;;;;;3.22;2.25;;;17.80;99.90;;;;;;4193256;28;20040;-75
2023/03/18 08:42:13;;;;;;;4.60;2.65;;;17.70;99.90;;;;;;4195939;28;20035;-75
2023/03/18 08:44:14;;;;;;;5.72;2.97;;;17.70;99.90;;;;;;4195493;28;20041;-74
2023/03/18 08:46:14;;;;;;;5.53;2.75;;;17.50;99.90;;;;;;4189963;28;20116;-74
2023/03/18 08:48:15;;;;;;;4.00;2.17;;;17.50;99.90;;;;;;4193827;28;20032;-75
2023/03/18 08:50:16;;;;;;;5.80;2.92;;;17.30;99.90;;;;;;4194428;28;20128;-74
2023/03/18 08:52:17;;;;;;;4.53;2.72;;;17.20;99.90;;;;;;4196664;28;20043;-74
2023/03/18 08:54:20;;;;;;;4.00;2.70;;;17.20;99.90;;;;;;4191896;28;20116;-73
2023/03/18 08:56:20;;;;;;;5.30;2.38;;;17.00;99.90;;;;;;4193453;28;20037;-72
2023/03/18 08:58:21;;;;;;;4.00;2.70;;;17.10;99.90;;;;;;4191899;28;20495;-73
2023/03/18 09:00:22;;;;;;;4.65;2.63;;;17.10;99.90;;;;;;4191891;28;20047;-73
2023/03/18 09:02:23;;;;;;;4.32;2.35;;;17.10;99.90;;;;;;4192658;28;20470;-73
2023/03/18 09:04:24;;;;;;;3.38;2.17;;;17.00;99.90;;;;;;4191563;28;20032;-73
2023/03/18 09:06:26;;;;;;;6.65;2.50;;;17.10;99.90;;;;;;4192866;28;20036;-74
2023/03/18 09:08:28;;;;;;;5.77;2.57;;;17.00;99.90;;;;;;4187129;28;20036;-74
2023/03/18 09:10:29;;;;;;;8.20;2.83;;;17.00;99.90;;;;;;4195167;28;20115;-74
2023/03/18 09:12:29;;;;;;;6.20;2.92;;;17.00;99.90;;;;;;4193740;28;20031;-73
2023/03/18 09:14:31;;;;;;;5.15;2.60;;;17.00;99.90;;;;;;4194452;28;20067;-74
2023/03/18 09:16:32;;;;;;;4.90;2.60;;;17.00;99.90;;;;;;4191990;28;20031;-73
2023/03/18 09:18:34;;;;;;;6.10;2.80;;;17.00;99.90;;;;;;4193876;28;20074;-73
2023/03/18 09:20:34;;;;;;;8.25;3.03;;;16.90;99.90;;;;;;4193859;28;20040;-74
2023/03/18 09:22:36;;;;;;;5.03;2.65;;;16.90;99.90;;;;;;4194049;28;20456;-74
2023/03/18 09:24:36;;;;;;;3.97;2.10;;;16.90;99.90;;;;;;4193061;28;20052;-74
2023/03/18 09:26:38;;;;;;;3.90;2.50;;;17.00;99.90;;;;;;4191206;28;20024;-74
2023/03/18 09:28:38;;;;;;;5.93;3.15;;;17.00;99.90;;;;;;4188415;28;20047;-74
2023/03/18 09:30:39;;;;;;;5.28;2.58;;;17.00;99.90;;;;;;4192685;28;20104;-73
2023/03/18 09:32:40;;;;;;;5.63;2.53;;;17.00;99.90;;;;;;4191763;28;20029;-74
2023/03/18 09:34:41;;;;;;;4.80;2.42;;;17.00;99.90;;;;;;4191215;28;20036;-74
2023/03/18 09:36:48;;;;;;;5.47;2.58;;;17.00;99.90;;;;;;4191321;28;20033;-74
2023/03/18 09:38:48;;;;;;;5.60;2.63;;;17.00;99.90;;;;;;4193835;28;20067;-74
2023/03/18 09:41:02;;;;;;;2.95;2.20;;;17.00;99.90;;;;;;4194076;28;20066;-75
2023/03/18 09:43:34;;;;;;;3.25;2.25;;;17.10;99.90;;;;;;4192324;28;20074;-74
2023/03/18 09:45:53;;;;;;;2.83;2.00;;;17.10;99.90;;;;;;4193576;28;20032;-73
2023/03/18 09:48:12;;;;;;;3.53;2.10;;;17.10;99.90;;;;;;4193138;28;20033;-74
2023/03/18 09:50:41;;;;;;;3.53;2.05;;;17.20;99.90;;;;;;4190739;28;20032;-73
2023/03/18 09:52:58;;;;;;;4.60;2.10;;;17.30;99.90;;;;;;4173845;28;20496;-74
2023/03/18 09:55:24;;;;;;;4.38;2.05;;;17.40;99.90;;;;;;4191266;28;20037;-73
2023/03/18 09:57:32;;;;;;;6.47;2.17;;;17.40;99.90;;;;;;4188229;28;20077;-73
2023/03/18 09:59:43;;;;;;;4.68;2.40;;;17.50;99.90;;;;;;4187546;28;20025;-73
2023/03/18 10:01:47;;;;;;;5.57;2.15;;;17.60;99.90;;;;;;4192447;28;20094;-74
2023/03/18 10:04:20;;;;;;;4.45;2.03;;;17.60;99.90;;;;;;4190969;28;20033;-73
2023/03/18 10:06:23;;;;;;;4.60;2.20;;;17.60;99.90;;;;;;4191146;28;20517;-73
2023/03/18 10:08:45;;;;;;;4.15;2.22;;;17.70;99.90;;;;;;4191171;28;20379;-73
2023/03/18 10:10:47;;;;;;;4.88;1.83;;;17.70;99.90;;;;;;4187873;28;20033;-73
2023/03/18 10:12:55;;;;;;;3.08;1.98;;;17.80;99.90;;;;;;4192844;28;20035;-74
2023/03/18 10:15:16;;;;;;;4.68;1.92;;;17.90;99.90;;;;;;4195068;28;20028;-73
2023/03/18 10:17:36;;;;;;;3.65;1.77;;;17.90;99.90;;;;;;4196042;28;20082;-74
2023/03/18 10:19:41;;;;;;;3.25;1.60;;;17.90;99.90;;;;;;4195567;28;20031;-74
2023/03/18 10:22:08;;;;;;;3.15;2.00;;;17.90;99.90;;;;;;4195341;28;20037;-74
2023/03/18 10:24:34;;;;;;;3.97;1.98;;;17.90;99.90;;;;;;4195510;28;20040;-74
2023/03/18 10:26:49;;;;;;;4.97;1.70;;;17.90;99.90;;;;;;4194765;28;20029;-74
2023/03/18 10:29:02;;;;;;;3.85;1.98;;;18.00;99.90;;;;;;4195883;28;20094;-74
2023/03/18 10:31:38;;;;;;;4.13;1.77;;;17.90;99.90;;;;;;4193210;28;20471;-72
2023/03/18 10:33:58;;;;;;;3.10;1.73;;;18.00;99.90;;;;;;4195415;28;20115;-74
2023/03/18 10:36:16;;;;;;;2.30;1.75;;;18.00;99.90;;;;;;4194999;28;20353;-73
2023/03/18 10:38:30;;;;;;;2.97;1.90;;;18.10;99.90;;;;;;4195583;28;20052;-73
2023/03/18 10:40:36;;;;;;;2.78;1.55;;;18.10;99.90;;;;;;4193211;28;20047;-74